KBFD/BFD METAR and TAF weather

Enter ICAO airport designator
Station Type Date Time Source
KBFD METAR 2018/07/20 13:53 UTC NOAA

KBFD 201353Z AUTO VRB05G15KT 10SM CLR 22/14 A3012 RMK AO2 SLP188 T02220139


Station Type Date Time Source
KBFD Decoded METAR 2018/07/20 13:53 UTC NOAA

BRADFORD REGIONAL AIRPORT, PA, United States (KBFD) 41-48N 078-38W 647M
Jul 20, 2018 - 09:53 AM EDT / 2018.07.20 1353 UTC
Wind: Variable at 6 MPH (5 KT) gusting to 17 MPH (15 KT):0
Visibility: 10 mile(s):0
Sky conditions: clear
Temperature: 72.0 F (22.2 C)
Dew Point: 57.0 F (13.9 C)
Relative Humidity: 59%
Pressure (altimeter): 30.12 in. Hg (1019 hPa)
ob: KBFD 201353Z AUTO VRB05G15KT 10SM CLR 22/14 A3012 RMK AO2 SLP188 T02220139
cycle: 14

Station Type Date Time Source
KBFD TAF 2018/07/20 12:34 UTC NOAA

TAF KBFD 201131Z 2012/2112 13005KT P6SM SKC
FM201500 16010G15KT P6SM SCT050
FM210500 14008KT P6SM BKN040
FM211000 15010KT P6SM OVC030


Example: see airport list